sensor_id;sensor_type;location;lat;lon;timestamp;pressure;altitude;pressure_sealevel;temperature;humidity
38253;BME280;24785;52.372;20.672;2023-01-25T00:01:03;102861.91;;;-0.19;100.00
38253;BME280;24785;52.372;20.672;2023-01-25T00:11:04;102867.75;;;-0.25;100.00
38253;BME280;24785;52.372;20.672;2023-01-25T00:21:16;102865.00;;;-0.34;100.00
38253;BME280;24785;52.372;20.672;2023-01-25T00:41:45;102842.44;;;-0.65;100.00
38253;BME280;24785;52.372;20.672;2023-01-25T00:51:47;102830.78;;;-0.63;100.00
38253;BME280;24785;52.372;20.672;2023-01-25T01:01:48;102824.44;;;-0.70;100.00
38253;BME280;24785;52.372;20.672;2023-01-25T01:11:49;102825.28;;;-0.79;100.00
38253;BME280;24785;52.372;20.672;2023-01-25T01:21:49;102818.50;;;-0.91;100.00
38253;BME280;24785;52.372;20.672;2023-01-25T01:31:51;102812.56;;;-0.93;100.00
38253;BME280;24785;52.372;20.672;2023-01-25T01:41:52;102812.66;;;-1.04;100.00
38253;BME280;24785;52.372;20.672;2023-01-25T01:51:58;102808.50;;;-1.16;100.00
38253;BME280;24785;52.372;20.672;2023-01-25T02:02:01;102811.56;;;-1.11;100.00
38253;BME280;24785;52.372;20.672;2023-01-25T02:12:03;102803.53;;;-1.10;100.00
38253;BME280;24785;52.372;20.672;2023-01-25T02:22:08;102799.09;;;-1.29;100.00
38253;BME280;24785;52.372;20.672;2023-01-25T02:32:12;102788.13;;;-1.53;100.00
38253;BME280;24785;52.372;20.672;2023-01-25T02:42:13;102777.22;;;-1.39;100.00
38253;BME280;24785;52.372;20.672;2023-01-25T02:52:13;102767.91;;;-1.52;100.00
38253;BME280;24785;52.372;20.672;2023-01-25T03:02:14;102755.31;;;-1.59;100.00
38253;BME280;24785;52.372;20.672;2023-01-25T03:12:15;102731.66;;;-1.68;100.00
38253;BME280;24785;52.372;20.672;2023-01-25T03:22:16;102744.09;;;-1.80;100.00
38253;BME280;24785;52.372;20.672;2023-01-25T03:32:16;102727.56;;;-2.01;100.00
38253;BME280;24785;52.372;20.672;2023-01-25T03:42:19;102711.94;;;-1.93;100.00
38253;BME280;24785;52.372;20.672;2023-01-25T03:52:20;102708.75;;;-2.06;100.00
38253;BME280;24785;52.372;20.672;2023-01-25T04:02:20;102697.13;;;-2.13;100.00
38253;BME280;24785;52.372;20.672;2023-01-25T04:12:21;102704.03;;;-2.12;100.00
38253;BME280;24785;52.372;20.672;2023-01-25T04:22:22;102690.47;;;-2.27;100.00
38253;BME280;24785;52.372;20.672;2023-01-25T04:32:23;102692.84;;;-2.14;100.00
38253;BME280;24785;52.372;20.672;2023-01-25T04:42:24;102689.09;;;-2.22;100.00
38253;BME280;24785;52.372;20.672;2023-01-25T04:52:24;102691.19;;;-2.06;100.00
38253;BME280;24785;52.372;20.672;2023-01-25T05:02:26;102686.91;;;-2.07;100.00
38253;BME280;24785;52.372;20.672;2023-01-25T05:12:27;102680.94;;;-2.59;100.00
38253;BME280;24785;52.372;20.672;2023-01-25T05:22:27;102688.28;;;-2.83;100.00
38253;BME280;24785;52.372;20.672;2023-01-25T05:32:28;102675.19;;;-2.83;100.00
38253;BME280;24785;52.372;20.672;2023-01-25T05:42:29;102672.47;;;-2.72;100.00
38253;BME280;24785;52.372;20.672;2023-01-25T05:52:30;102649.75;;;-2.42;100.00
38253;BME280;24785;52.372;20.672;2023-01-25T06:02:31;102627.28;;;-2.26;100.00
38253;BME280;24785;52.372;20.672;2023-01-25T06:12:33;102642.91;;;-2.24;100.00
38253;BME280;24785;52.372;20.672;2023-01-25T06:22:35;102649.53;;;-2.30;100.00
38253;BME280;24785;52.372;20.672;2023-01-25T06:32:36;102634.19;;;-2.25;100.00
38253;BME280;24785;52.372;20.672;2023-01-25T06:42:37;102630.19;;;-2.19;100.00
38253;BME280;24785;52.372;20.672;2023-01-25T06:52:38;102625.78;;;-2.09;100.00
38253;BME280;24785;52.372;20.672;2023-01-25T07:02:38;102602.00;;;-2.17;100.00
38253;BME280;24785;52.372;20.672;2023-01-25T07:12:39;102615.13;;;-2.07;100.00
38253;BME280;24785;52.372;20.672;2023-01-25T07:22:40;102608.63;;;-2.13;100.00
38253;BME280;24785;52.372;20.672;2023-01-25T07:32:41;102604.22;;;-2.12;100.00
38253;BME280;24785;52.372;20.672;2023-01-25T07:42:42;102579.31;;;-1.99;100.00
38253;BME280;24785;52.372;20.672;2023-01-25T07:52:42;102583.63;;;-1.88;100.00
38253;BME280;24785;52.372;20.672;2023-01-25T08:02:43;102583.50;;;-1.86;100.00
38253;BME280;24785;52.372;20.672;2023-01-25T08:12:45;102570.22;;;-1.85;100.00
38253;BME280;24785;52.372;20.672;2023-01-25T08:22:46;102566.75;;;-1.95;100.00
38253;BME280;24785;52.372;20.672;2023-01-25T08:32:47;102561.50;;;-1.85;100.00
38253;BME280;24785;52.372;20.672;2023-01-25T08:42:48;102553.31;;;-1.73;100.00
38253;BME280;24785;52.372;20.672;2023-01-25T08:52:50;102551.25;;;-1.79;100.00
38253;BME280;24785;52.372;20.672;2023-01-25T09:02:51;102550.00;;;-1.75;100.00
38253;BME280;24785;52.372;20.672;2023-01-25T09:12:52;102535.75;;;-1.72;100.00
38253;BME280;24785;52.372;20.672;2023-01-25T09:22:53;102523.94;;;-1.59;100.00
38253;BME280;24785;52.372;20.672;2023-01-25T09:32:54;102516.75;;;-1.56;100.00
38253;BME280;24785;52.372;20.672;2023-01-25T09:42:58;102504.00;;;-1.42;100.00
38253;BME280;24785;52.372;20.672;2023-01-25T09:53:52;102484.41;;;-1.30;100.00
38253;BME280;24785;52.372;20.672;2023-01-25T10:03:37;102476.25;;;-1.27;100.00
38253;BME280;24785;52.372;20.672;2023-01-25T10:13:42;102471.38;;;-1.21;100.00
38253;BME280;24785;52.372;20.672;2023-01-25T10:24:11;102471.66;;;-1.24;100.00
38253;BME280;24785;52.372;20.672;2023-01-25T10:34:20;102449.44;;;-1.40;100.00
38253;BME280;24785;52.372;20.672;2023-01-25T10:44:24;102439.78;;;-1.49;100.00
38253;BME280;24785;52.372;20.672;2023-01-25T10:54:25;102415.66;;;-1.44;100.00
38253;BME280;24785;52.372;20.672;2023-01-25T11:14:31;102355.38;;;-1.28;100.00
38253;BME280;24785;52.372;20.672;2023-01-25T11:24:34;102361.34;;;-0.90;100.00
38253;BME280;24785;52.372;20.672;2023-01-25T11:34:35;102361.44;;;-0.82;100.00
38253;BME280;24785;52.372;20.672;2023-01-25T11:55:03;102343.66;;;-0.98;100.00
38253;BME280;24785;52.372;20.672;2023-01-25T12:15:51;102302.63;;;-0.91;100.00
38253;BME280;24785;52.372;20.672;2023-01-25T12:26:11;102277.50;;;-0.85;100.00
38253;BME280;24785;52.372;20.672;2023-01-25T12:36:30;102268.38;;;-0.73;100.00
38253;BME280;24785;52.372;20.672;2023-01-25T12:46:51;102268.63;;;-1.02;100.00
38253;BME280;24785;52.372;20.672;2023-01-25T12:57:18;102269.63;;;-1.03;100.00
38253;BME280;24785;52.372;20.672;2023-01-25T13:07:42;102258.31;;;-0.78;100.00
38253;BME280;24785;52.372;20.672;2023-01-25T13:17:47;102246.72;;;-0.59;100.00
38253;BME280;24785;52.372;20.672;2023-01-25T13:27:48;102233.63;;;-0.51;100.00
38253;BME280;24785;52.372;20.672;2023-01-25T13:37:57;102212.38;;;-0.83;100.00
38253;BME280;24785;52.372;20.672;2023-01-25T13:48:19;102195.50;;;-0.73;100.00
38253;BME280;24785;52.372;20.672;2023-01-25T13:59:04;102191.16;;;-0.82;100.00
38253;BME280;24785;52.372;20.672;2023-01-25T14:08:48;102178.44;;;-0.94;100.00
38253;BME280;24785;52.372;20.672;2023-01-25T14:18:49;102178.78;;;-0.89;100.00
38253;BME280;24785;52.372;20.672;2023-01-25T14:28:53;102152.09;;;-0.94;100.00
38253;BME280;24785;52.372;20.672;2023-01-25T14:38:54;102149.25;;;-1.01;100.00
38253;BME280;24785;52.372;20.672;2023-01-25T14:49:15;102141.28;;;-0.91;100.00
38253;BME280;24785;52.372;20.672;2023-01-25T14:59:28;102140.72;;;-0.95;100.00
38253;BME280;24785;52.372;20.672;2023-01-25T15:09:40;102113.34;;;-1.10;100.00
38253;BME280;24785;52.372;20.672;2023-01-25T15:19:50;102101.88;;;-1.01;100.00
38253;BME280;24785;52.372;20.672;2023-01-25T15:29:51;102088.03;;;-1.11;100.00
38253;BME280;24785;52.372;20.672;2023-01-25T15:39:52;102071.69;;;-1.23;100.00
38253;BME280;24785;52.372;20.672;2023-01-25T15:49:53;102063.00;;;-1.15;100.00
38253;BME280;24785;52.372;20.672;2023-01-25T15:59:55;102057.28;;;-1.11;100.00
38253;BME280;24785;52.372;20.672;2023-01-25T16:09:56;102053.16;;;-1.13;100.00
38253;BME280;24785;52.372;20.672;2023-01-25T16:19:57;102044.44;;;-1.14;100.00
38253;BME280;24785;52.372;20.672;2023-01-25T16:29:58;102034.09;;;-1.07;100.00
38253;BME280;24785;52.372;20.672;2023-01-25T16:39:59;102032.13;;;-1.05;100.00
38253;BME280;24785;52.372;20.672;2023-01-25T16:50:00;102009.59;;;-1.08;100.00
38253;BME280;24785;52.372;20.672;2023-01-25T17:00:03;101990.88;;;-1.05;100.00
38253;BME280;24785;52.372;20.672;2023-01-25T17:10:05;101990.13;;;-0.89;100.00
38253;BME280;24785;52.372;20.672;2023-01-25T17:20:08;101974.25;;;-1.05;100.00
38253;BME280;24785;52.372;20.672;2023-01-25T17:30:09;101960.63;;;-1.01;100.00
38253;BME280;24785;52.372;20.672;2023-01-25T17:40:10;101958.78;;;-1.08;100.00
38253;BME280;24785;52.372;20.672;2023-01-25T17:50:11;101947.19;;;-0.89;100.00
38253;BME280;24785;52.372;20.672;2023-01-25T18:00:14;101931.72;;;-0.92;100.00
38253;BME280;24785;52.372;20.672;2023-01-25T18:10:15;101936.91;;;-1.09;100.00
38253;BME280;24785;52.372;20.672;2023-01-25T18:20:16;101932.47;;;-1.08;100.00
38253;BME280;24785;52.372;20.672;2023-01-25T18:30:38;101914.94;;;-0.91;100.00
38253;BME280;24785;52.372;20.672;2023-01-25T18:40:42;101918.84;;;-1.04;100.00
38253;BME280;24785;52.372;20.672;2023-01-25T18:50:46;101909.97;;;-1.03;100.00
38253;BME280;24785;52.372;20.672;2023-01-25T19:00:47;101900.75;;;-0.99;100.00
38253;BME280;24785;52.372;20.672;2023-01-25T19:10:48;101883.50;;;-1.01;100.00
38253;BME280;24785;52.372;20.672;2023-01-25T19:20:49;101873.31;;;-0.96;100.00
38253;BME280;24785;52.372;20.672;2023-01-25T19:30:50;101873.16;;;-0.94;100.00
38253;BME280;24785;52.372;20.672;2023-01-25T19:40:51;101854.41;;;-0.91;100.00
38253;BME280;24785;52.372;20.672;2023-01-25T19:50:52;101845.19;;;-0.96;100.00
38253;BME280;24785;52.372;20.672;2023-01-25T20:00:52;101840.44;;;-0.92;100.00
38253;BME280;24785;52.372;20.672;2023-01-25T20:11:00;101834.69;;;-0.87;100.00
38253;BME280;24785;52.372;20.672;2023-01-25T20:21:04;101816.25;;;-0.87;100.00
38253;BME280;24785;52.372;20.672;2023-01-25T20:31:16;101804.75;;;-0.86;100.00
38253;BME280;24785;52.372;20.672;2023-01-25T20:41:18;101802.44;;;-0.81;100.00
38253;BME280;24785;52.372;20.672;2023-01-25T20:51:19;101795.84;;;-0.61;100.00
38253;BME280;24785;52.372;20.672;2023-01-25T21:01:26;101778.59;;;-0.72;100.00
38253;BME280;24785;52.372;20.672;2023-01-25T21:11:29;101777.44;;;-0.77;100.00
38253;BME280;24785;52.372;20.672;2023-01-25T21:21:31;101775.78;;;-0.78;100.00
38253;BME280;24785;52.372;20.672;2023-01-25T21:31:38;101761.16;;;-0.73;100.00
38253;BME280;24785;52.372;20.672;2023-01-25T21:41:39;101760.97;;;-0.71;100.00
38253;BME280;24785;52.372;20.672;2023-01-25T21:51:42;101751.75;;;-0.67;100.00
38253;BME280;24785;52.372;20.672;2023-01-25T22:01:49;101751.59;;;-0.66;100.00
38253;BME280;24785;52.372;20.672;2023-01-25T22:11:51;101747.13;;;-0.65;100.00
38253;BME280;24785;52.372;20.672;2023-01-25T22:21:52;101746.81;;;-0.62;100.00
38253;BME280;24785;52.372;20.672;2023-01-25T22:31:53;101734.28;;;-0.60;100.00
38253;BME280;24785;52.372;20.672;2023-01-25T22:41:54;101721.94;;;-0.59;100.00
38253;BME280;24785;52.372;20.672;2023-01-25T22:51:56;101715.34;;;-0.55;100.00
38253;BME280;24785;52.372;20.672;2023-01-25T23:01:56;101711.91;;;-0.56;100.00
38253;BME280;24785;52.372;20.672;2023-01-25T23:11:58;101687.22;;;-0.55;100.00
38253;BME280;24785;52.372;20.672;2023-01-25T23:21:59;101670.09;;;-0.51;100.00
38253;BME280;24785;52.372;20.672;2023-01-25T23:32:00;101662.19;;;-0.51;100.00
38253;BME280;24785;52.372;20.672;2023-01-25T23:42:01;101647.22;;;-0.50;100.00
38253;BME280;24785;52.372;20.672;2023-01-25T23:52:02;101629.78;;;-0.51;100.00
